createdAt,value
2019-05-10T00:01:31.264Z,10.70
2019-05-10T00:04:17.732Z,10.78
2019-05-10T00:07:04.239Z,10.71
2019-05-10T00:09:32.123Z,10.61
2019-05-10T00:12:02.758Z,10.65
2019-05-10T00:14:35.581Z,10.61
2019-05-10T00:17:05.877Z,10.64
2019-05-10T00:19:34.481Z,10.73
2019-05-10T00:22:05.808Z,10.60
2019-05-10T00:24:34.342Z,10.51
2019-05-10T00:27:05.071Z,10.38
2019-05-10T00:29:33.679Z,10.32
2019-05-10T00:32:03.826Z,10.31
2019-05-10T00:34:35.400Z,10.49
2019-05-10T00:37:04.438Z,10.43
2019-05-10T00:39:34.693Z,10.42
2019-05-10T00:42:06.348Z,10.56
2019-05-10T00:44:35.106Z,10.54
2019-05-10T00:47:03.922Z,10.56
2019-05-10T00:49:35.413Z,10.74
2019-05-10T00:52:04.114Z,10.67
2019-05-10T00:54:33.060Z,10.59
2019-05-10T00:57:04.352Z,10.59
2019-05-10T00:59:34.617Z,10.68
2019-05-10T01:02:05.892Z,10.76
2019-05-10T01:04:34.449Z,10.66
2019-05-10T01:07:04.653Z,10.56
2019-05-10T01:09:35.930Z,10.59
2019-05-10T01:12:04.957Z,10.66
2019-05-10T01:14:33.792Z,10.78
2019-05-10T01:17:04.331Z,10.72
2019-05-10T01:19:34.501Z,10.76
2019-05-10T01:22:04.826Z,10.81
2019-05-10T01:24:33.355Z,10.91
2019-05-10T01:27:01.990Z,10.95
2019-05-10T01:29:32.557Z,11.00
2019-05-10T01:32:02.729Z,11.05
2019-05-10T01:34:32.969Z,10.96
2019-05-10T01:37:01.588Z,10.88
2019-05-10T01:39:31.988Z,10.88
2019-05-10T01:42:01.421Z,10.92
2019-05-10T01:44:31.873Z,10.88
2019-05-10T01:47:00.675Z,10.81
2019-05-10T01:49:29.277Z,10.77
2019-05-10T01:51:57.814Z,10.64
2019-05-10T01:54:26.332Z,10.71
2019-05-10T01:56:54.901Z,10.57
2019-05-10T01:59:23.510Z,10.58
2019-05-10T02:01:52.044Z,10.52
2019-05-10T02:04:20.565Z,10.61
2019-05-10T02:06:49.171Z,10.61
2019-05-10T02:09:17.790Z,10.56
2019-05-10T02:11:46.386Z,10.57
2019-05-10T02:14:14.916Z,10.54
2019-05-10T02:16:43.714Z,10.54
2019-05-10T02:19:12.262Z,10.55
2019-05-10T02:21:41.082Z,10.58
2019-05-10T02:24:09.894Z,10.55
2019-05-10T02:26:38.523Z,10.55
2019-05-10T02:29:07.060Z,10.61
2019-05-10T02:31:35.755Z,10.73
2019-05-10T02:34:04.367Z,10.68
2019-05-10T02:36:34.450Z,10.65
2019-05-10T02:39:06.539Z,10.74
2019-05-10T02:41:35.159Z,10.71
2019-05-10T02:44:03.687Z,10.77
2019-05-10T02:46:33.741Z,10.75
2019-05-10T02:49:03.829Z,10.78
2019-05-10T02:51:34.023Z,10.79
2019-05-10T02:54:05.614Z,10.89
2019-05-10T02:56:34.898Z,10.98
2019-05-10T02:59:03.862Z,10.92
2019-05-10T03:01:32.705Z,10.93
2019-05-10T03:04:03.705Z,10.93
2019-05-10T03:06:34.412Z,10.98
2019-05-10T03:09:06.614Z,10.92
2019-05-10T03:11:46.795Z,10.95
2019-05-10T03:14:17.620Z,10.90
2019-05-10T03:16:49.341Z,10.98
2019-05-10T03:19:20.198Z,10.92
2019-05-10T03:21:51.780Z,10.93
2019-05-10T03:24:20.643Z,11.01
2019-05-10T03:26:51.273Z,11.05
2019-05-10T03:29:19.565Z,11.03
2019-05-10T03:31:48.181Z,10.97
2019-05-10T03:34:17.247Z,10.82
2019-05-10T03:36:45.783Z,10.75
2019-05-10T03:39:14.346Z,10.77
2019-05-10T03:41:43.490Z,10.65
2019-05-10T03:44:12.186Z,10.75
2019-05-10T03:46:40.744Z,10.70
2019-05-10T03:49:09.303Z,10.76
2019-05-10T03:51:37.854Z,10.75
2019-05-10T03:54:06.441Z,10.75
2019-05-10T03:56:35.056Z,10.82
2019-05-10T03:59:03.675Z,10.81
2019-05-10T04:01:33.836Z,10.79
2019-05-10T04:04:09.365Z,10.85
2019-05-10T04:06:35.874Z,10.95
2019-05-10T04:09:06.545Z,11.04
2019-05-10T04:11:35.126Z,11.05
2019-05-10T04:14:03.969Z,10.92
2019-05-10T04:16:35.975Z,10.91
2019-05-10T04:19:04.507Z,10.81
2019-05-10T04:21:35.815Z,10.78
2019-05-10T04:24:04.497Z,10.79
2019-05-10T04:26:36.186Z,10.67
2019-05-10T04:29:04.902Z,10.69
2019-05-10T04:31:33.506Z,10.59
2019-05-10T04:34:02.238Z,10.70
2019-05-10T04:36:33.835Z,10.76
2019-05-10T04:39:06.188Z,10.85
2019-05-10T04:41:34.711Z,10.89
2019-05-10T04:44:06.368Z,11.01
2019-05-10T04:46:34.974Z,11.12
2019-05-10T04:49:03.532Z,11.09
2019-05-10T04:51:32.067Z,11.18
2019-05-10T04:54:03.631Z,11.06
2019-05-10T04:56:33.737Z,11.08
2019-05-10T04:59:03.894Z,11.18
2019-05-10T05:01:35.416Z,11.24
2019-05-10T05:04:04.096Z,11.17
2019-05-10T05:06:32.723Z,11.24
2019-05-10T05:09:02.983Z,11.28
2019-05-10T05:11:31.592Z,11.31
2019-05-10T05:14:00.196Z,11.28
2019-05-10T05:16:28.719Z,11.29
2019-05-10T05:18:57.312Z,11.27
2019-05-10T05:21:25.929Z,11.31
2019-05-10T05:23:54.543Z,11.25
2019-05-10T05:26:23.159Z,11.29
2019-05-10T05:28:51.982Z,11.19
2019-05-10T05:31:20.508Z,11.24
2019-05-10T05:33:49.107Z,11.38
2019-05-10T05:36:17.723Z,11.34
2019-05-10T05:38:47.674Z,11.21
2019-05-10T05:41:16.508Z,11.35
2019-05-10T05:43:46.191Z,11.34
2019-05-10T05:46:15.752Z,11.21
2019-05-10T05:48:44.285Z,11.36
2019-05-10T05:51:12.818Z,11.42
2019-05-10T05:53:42.853Z,11.52
2019-05-10T05:56:14.136Z,11.63
2019-05-10T05:58:44.695Z,11.66
2019-05-10T06:01:24.390Z,11.72
2019-05-10T06:03:45.859Z,11.63
2019-05-10T06:06:21.248Z,11.81
2019-05-10T06:08:44.746Z,11.89
2019-05-10T06:11:13.268Z,12.02
2019-05-10T06:13:42.096Z,12.42
2019-05-10T06:16:13.209Z,12.53
2019-05-10T06:18:41.526Z,12.64
2019-05-10T06:21:11.177Z,12.79
2019-05-10T06:23:39.726Z,12.93
2019-05-10T06:26:21.030Z,13.11
2019-05-10T06:31:09.124Z,13.66
2019-05-10T06:33:39.756Z,13.47
2019-05-10T06:36:08.091Z,13.52
2019-05-10T06:38:36.699Z,13.48
2019-05-10T06:41:10.297Z,13.53
2019-05-10T06:43:35.658Z,13.81
2019-05-10T06:46:04.371Z,13.78
2019-05-10T06:48:34.437Z,13.65
2019-05-10T06:51:09.256Z,13.74
2019-05-10T06:53:34.924Z,13.82
2019-05-10T06:56:03.558Z,13.79
2019-05-10T06:58:36.352Z,13.80
2019-05-10T07:01:05.272Z,14.09
2019-05-10T07:03:33.785Z,14.19
2019-05-10T07:06:02.635Z,14.06
2019-05-10T07:08:43.714Z,14.23
2019-05-10T07:11:03.556Z,14.31
2019-05-10T07:13:32.405Z,14.29
2019-05-10T07:16:01.852Z,14.28
2019-05-10T07:18:30.950Z,14.50
2019-05-10T07:21:00.830Z,14.17
2019-05-10T07:23:47.744Z,14.33
2019-05-10T07:26:17.630Z,14.55
2019-05-10T07:28:51.953Z,14.71
2019-05-10T07:31:17.139Z,14.79
2019-05-10T07:33:45.697Z,15.04
2019-05-10T07:36:15.564Z,15.19
2019-05-10T07:38:44.676Z,15.01
2019-05-10T07:41:13.203Z,15.27
2019-05-10T07:43:41.794Z,15.05
2019-05-10T07:46:10.416Z,15.03
2019-05-10T07:48:41.354Z,15.18
2019-05-10T07:51:09.199Z,15.08
2019-05-10T07:53:37.802Z,15.01
2019-05-10T07:56:07.868Z,15.10
2019-05-10T07:58:38.343Z,15.14
2019-05-10T08:01:06.896Z,15.13
2019-05-10T08:03:40.501Z,15.15
2019-05-10T08:06:08.215Z,15.23
2019-05-10T08:08:38.900Z,15.42
2019-05-10T08:11:08.591Z,15.62
2019-05-10T08:13:39.317Z,15.86
2019-05-10T08:16:11.858Z,15.88
2019-05-10T08:18:42.032Z,16.08
2019-05-10T08:21:20.933Z,16.20
2019-05-10T08:23:41.070Z,16.24
2019-05-10T08:26:11.067Z,16.02
2019-05-10T08:28:44.439Z,15.87
2019-05-10T08:31:12.406Z,16.10
2019-05-10T08:33:46.289Z,15.88
2019-05-10T08:36:12.127Z,16.07
2019-05-10T08:38:46.205Z,16.27
2019-05-10T08:41:16.508Z,16.42
2019-05-10T08:43:43.017Z,16.44
2019-05-10T08:46:12.199Z,16.01
2019-05-10T08:48:46.724Z,16.51
2019-05-10T08:51:12.508Z,16.45
2019-05-10T08:53:42.088Z,16.85
2019-05-10T08:56:15.938Z,16.95
2019-05-10T08:58:42.210Z,16.74
2019-05-10T09:01:20.840Z,16.42
2019-05-10T09:03:42.023Z,16.42
2019-05-10T09:06:14.321Z,16.56
2019-05-10T09:08:43.194Z,16.39
2019-05-10T09:11:11.568Z,16.43
2019-05-10T09:13:42.636Z,16.27
2019-05-10T09:16:10.550Z,16.44
2019-05-10T09:18:46.187Z,16.69
2019-05-10T09:21:13.551Z,16.80
2019-05-10T09:23:39.756Z,16.95
2019-05-10T09:26:15.995Z,16.88
2019-05-10T09:28:42.168Z,16.76
2019-05-10T09:31:18.657Z,16.06
2019-05-10T09:33:49.148Z,15.51
2019-05-10T09:36:12.444Z,15.62
2019-05-10T09:38:45.722Z,15.33
2019-05-10T09:41:12.035Z,15.46
2019-05-10T09:43:48.369Z,15.55
2019-05-10T09:46:11.465Z,15.94
2019-05-10T09:48:44.670Z,16.13
2019-05-10T09:51:13.764Z,16.44
2019-05-10T09:53:41.813Z,16.44
2019-05-10T09:56:10.426Z,16.51
2019-05-10T09:58:39.002Z,16.41
2019-05-10T10:01:14.817Z,16.59
2019-05-10T10:03:43.066Z,16.71
2019-05-10T10:06:11.165Z,17.25
2019-05-10T10:08:43.567Z,17.72
2019-05-10T10:11:15.121Z,17.33
2019-05-10T10:13:43.529Z,16.88
2019-05-10T10:16:14.487Z,16.49
2019-05-10T10:18:40.241Z,16.20
2019-05-10T10:21:10.374Z,15.50
2019-05-10T10:23:39.608Z,15.23
2019-05-10T10:26:12.765Z,15.08
2019-05-10T10:28:39.713Z,15.15
2019-05-10T10:31:08.854Z,15.11
2019-05-10T10:33:38.118Z,15.45
2019-05-10T10:36:09.940Z,15.89
2019-05-10T10:38:45.444Z,16.03
2019-05-10T10:41:08.318Z,16.11
2019-05-10T10:43:37.368Z,16.32
2019-05-10T10:46:12.097Z,16.66
2019-05-10T10:48:36.980Z,16.59
2019-05-10T10:51:08.087Z,16.78
2019-05-10T10:53:36.237Z,16.56
2019-05-10T10:56:07.457Z,16.44
2019-05-10T10:58:35.125Z,16.33
2019-05-10T11:01:10.796Z,16.64
2019-05-10T11:03:33.950Z,16.69
2019-05-10T11:06:05.552Z,16.73
2019-05-10T11:08:34.104Z,16.95
2019-05-10T11:11:05.628Z,16.96
2019-05-10T11:13:44.110Z,17.17
2019-05-10T11:16:10.872Z,16.94
2019-05-10T11:18:34.793Z,17.42
2019-05-10T11:21:06.086Z,18.10
2019-05-10T11:23:39.085Z,18.20
2019-05-10T11:26:05.088Z,18.13
2019-05-10T11:28:38.656Z,17.84
2019-05-10T11:31:03.877Z,17.43
2019-05-10T11:33:35.941Z,17.49
2019-05-10T11:36:08.629Z,16.98
2019-05-10T11:38:35.122Z,17.02
2019-05-10T11:41:07.059Z,17.24
2019-05-10T11:43:34.415Z,17.50
2019-05-10T11:46:04.628Z,17.60
2019-05-10T11:48:37.382Z,17.71
2019-05-10T11:51:12.276Z,17.28
2019-05-10T11:53:36.908Z,17.45
2019-05-10T11:56:07.794Z,17.63
2019-05-10T12:03:36.798Z,17.67
2019-05-10T12:06:08.990Z,17.92
2019-05-10T12:08:36.128Z,18.18
2019-05-10T12:11:18.099Z,18.11
2019-05-10T12:13:35.286Z,17.92
2019-05-10T12:16:03.885Z,18.21
2019-05-10T12:18:36.288Z,17.84
2019-05-10T12:21:09.606Z,17.63
2019-05-10T12:23:45.806Z,17.97
2019-05-10T12:26:05.895Z,17.38
2019-05-10T12:26:19.490Z,17.37
2019-05-10T12:28:36.590Z,17.85
2019-05-10T12:31:07.591Z,17.86
2019-05-10T12:33:35.951Z,17.99
2019-05-10T12:36:04.678Z,18.49
2019-05-10T12:38:38.427Z,18.34
2019-05-10T12:41:07.553Z,18.21
2019-05-10T12:43:36.105Z,18.29
2019-05-10T12:46:04.804Z,17.76
2019-05-10T12:48:35.946Z,17.39
2019-05-10T12:51:08.261Z,16.66
2019-05-10T12:53:47.870Z,16.24
2019-05-10T12:56:13.498Z,16.07
2019-05-10T12:58:42.090Z,16.18
2019-05-10T13:01:10.733Z,16.61
2019-05-10T13:03:39.341Z,16.96
2019-05-10T13:06:07.894Z,17.37
2019-05-10T13:08:36.469Z,17.21
2019-05-10T13:11:05.267Z,17.37
2019-05-10T13:13:33.904Z,17.78
2019-05-10T13:16:10.011Z,17.70
2019-05-10T13:18:49.930Z,17.63
2019-05-10T13:21:07.789Z,16.96
2019-05-10T13:23:35.871Z,17.00
2019-05-10T13:26:04.589Z,16.69
2019-05-10T13:28:36.481Z,16.42
2019-05-10T13:31:07.130Z,16.40
2019-05-10T13:33:42.111Z,16.34
2019-05-10T13:36:06.511Z,16.39
2019-05-10T13:38:36.893Z,16.61
2019-05-10T13:41:05.460Z,16.28
2019-05-10T13:43:34.081Z,16.83
2019-05-10T13:46:02.637Z,17.10
2019-05-10T13:48:32.807Z,17.17
2019-05-10T13:51:02.974Z,17.27
2019-05-10T13:53:31.603Z,17.73
2019-05-10T13:56:00.217Z,18.15
2019-05-10T13:58:28.750Z,18.32
2019-05-10T14:00:57.567Z,18.58
2019-05-10T14:03:26.372Z,18.22
2019-05-10T14:05:54.902Z,18.20
2019-05-10T14:08:23.511Z,18.38
2019-05-10T14:10:55.892Z,18.06
2019-05-10T14:13:22.792Z,18.14
2019-05-10T14:15:51.404Z,18.47
2019-05-10T14:18:19.938Z,18.83
2019-05-10T14:20:48.465Z,18.62
2019-05-10T14:23:17.971Z,18.79
2019-05-10T14:25:46.682Z,18.57
2019-05-10T14:28:17.303Z,18.57
2019-05-10T14:30:46.895Z,18.42
2019-05-10T14:33:17.276Z,18.19
2019-05-10T14:35:46.235Z,18.27
2019-05-10T14:38:14.861Z,18.13
2019-05-10T14:40:43.392Z,18.43
2019-05-10T14:43:12.087Z,18.67
2019-05-10T14:45:40.710Z,18.56
2019-05-10T14:48:09.262Z,18.22
2019-05-10T14:50:37.827Z,18.00
2019-05-10T14:53:06.437Z,17.94
2019-05-10T14:55:36.828Z,18.01
2019-05-10T14:58:05.307Z,17.61
2019-05-10T15:00:33.900Z,17.88
2019-05-10T15:03:05.734Z,18.07
2019-05-10T15:05:36.332Z,17.73
2019-05-10T15:08:04.610Z,17.77
2019-05-10T15:10:39.625Z,17.99
2019-05-10T15:13:06.458Z,18.15
2019-05-10T15:15:37.132Z,18.21
2019-05-10T15:18:05.410Z,18.16
2019-05-10T15:20:35.991Z,18.47
2019-05-10T15:23:04.399Z,18.22
2019-05-10T15:25:34.538Z,18.05
2019-05-10T15:28:05.810Z,18.03
2019-05-10T15:30:39.322Z,17.72
2019-05-10T15:33:05.042Z,17.72
2019-05-10T15:35:33.857Z,17.38
2019-05-10T15:38:05.152Z,17.04
2019-05-10T15:40:38.615Z,16.90
2019-05-10T15:43:04.043Z,16.46
2019-05-10T15:45:32.570Z,16.41
2019-05-10T15:48:04.492Z,16.29
2019-05-10T15:50:38.477Z,16.09
2019-05-10T15:53:06.316Z,15.90
2019-05-10T15:55:35.041Z,15.55
2019-05-10T15:58:03.611Z,15.10
2019-05-10T16:00:39.626Z,14.78
2019-05-10T16:03:04.355Z,14.60
2019-05-10T16:05:42.965Z,14.45
2019-05-10T16:08:04.684Z,14.36
2019-05-10T16:10:39.540Z,13.68
2019-05-10T16:13:03.574Z,13.68
2019-05-10T16:15:33.696Z,13.36
2019-05-10T16:18:03.725Z,13.09
2019-05-10T16:20:37.387Z,12.95
2019-05-10T16:23:08.737Z,12.69
2019-05-10T16:25:41.224Z,12.64
2019-05-10T16:28:06.610Z,12.79
2019-05-10T16:30:36.565Z,12.96
2019-05-10T16:33:09.581Z,13.09
2019-05-10T16:35:38.911Z,13.13
2019-05-10T16:38:05.827Z,13.25
2019-05-10T16:40:34.417Z,13.23
2019-05-10T16:43:06.999Z,13.19
2019-05-10T16:45:35.152Z,13.24
2019-05-10T16:48:05.808Z,13.41
2019-05-10T16:50:34.201Z,13.55
2019-05-10T16:53:05.645Z,13.69
2019-05-10T16:55:41.060Z,13.62
2019-05-10T16:58:09.453Z,13.95
2019-05-10T17:00:40.806Z,14.06
2019-05-10T17:03:07.154Z,14.28
2019-05-10T17:05:35.904Z,14.20
2019-05-10T17:08:05.665Z,14.42
2019-05-10T17:10:35.793Z,14.57
2019-05-10T17:13:06.544Z,14.78
2019-05-10T17:15:39.914Z,14.53
2019-05-10T17:18:10.781Z,14.47
2019-05-10T17:20:35.695Z,14.47
2019-05-10T17:23:08.823Z,14.30
2019-05-10T17:25:35.522Z,14.12
2019-05-10T17:28:04.316Z,13.89
2019-05-10T17:30:34.468Z,13.73
2019-05-10T17:33:06.115Z,13.63
2019-05-10T17:35:36.614Z,13.31
2019-05-10T17:38:08.018Z,13.27
2019-05-10T17:40:35.800Z,13.04
2019-05-10T17:43:04.714Z,13.06
2019-05-10T17:45:40.429Z,13.15
2019-05-10T17:48:08.534Z,13.26
2019-05-10T17:50:36.834Z,13.28
2019-05-10T17:53:05.447Z,13.28
2019-05-10T17:55:34.054Z,13.28
2019-05-10T17:58:05.635Z,13.12
2019-05-10T18:00:34.362Z,13.06
2019-05-10T18:03:04.830Z,12.92
2019-05-10T18:05:36.231Z,12.76
2019-05-10T18:08:09.254Z,12.68
2019-05-10T18:10:41.156Z,12.67
2019-05-10T18:13:09.822Z,12.47
2019-05-10T18:15:38.739Z,12.47
2019-05-10T18:18:07.350Z,12.44
2019-05-10T18:20:41.812Z,12.33
2019-05-10T18:23:06.315Z,12.33
2019-05-10T18:25:34.919Z,12.24
2019-05-10T18:28:03.836Z,12.08
2019-05-10T18:30:33.992Z,11.93
2019-05-10T18:33:06.818Z,11.97
2019-05-10T18:35:35.723Z,11.88
2019-05-10T18:38:04.334Z,11.81
2019-05-10T18:40:34.505Z,11.71
2019-05-10T18:43:05.899Z,11.73
2019-05-10T18:45:34.511Z,11.69
2019-05-10T18:48:04.754Z,11.64
2019-05-10T18:50:39.786Z,11.60
2019-05-10T18:53:06.582Z,11.49
2019-05-10T18:55:35.294Z,11.30
2019-05-10T18:58:04.108Z,11.06
2019-05-10T19:00:32.819Z,10.79
2019-05-10T19:03:03.276Z,10.68
2019-05-10T19:05:34.859Z,10.47
2019-05-10T19:08:05.738Z,10.30
2019-05-10T19:10:34.043Z,10.16
2019-05-10T19:13:06.489Z,10.07
2019-05-10T19:15:35.163Z,10.01
2019-05-10T19:18:03.868Z,9.96
2019-05-10T19:20:33.930Z,10.01
2019-05-10T19:23:05.721Z,10.04
2019-05-10T19:25:37.545Z,10.12
2019-05-10T19:28:04.699Z,10.06
2019-05-10T19:30:33.293Z,10.14
2019-05-10T19:33:02.143Z,10.17
2019-05-10T19:35:35.837Z,10.15
2019-05-10T19:38:04.054Z,10.20
2019-05-10T19:40:32.973Z,10.14
2019-05-10T19:43:01.594Z,10.14
2019-05-10T19:45:31.146Z,10.03
2019-05-10T19:47:59.858Z,9.98
2019-05-10T19:50:30.997Z,9.97
2019-05-10T19:53:03.722Z,9.88
2019-05-10T19:55:29.179Z,9.85
2019-05-10T19:57:57.789Z,9.84
2019-05-10T20:00:26.403Z,9.91
2019-05-10T20:02:55.008Z,9.87
2019-05-10T20:05:23.623Z,9.87
2019-05-10T20:07:52.228Z,9.89
2019-05-10T20:10:20.940Z,9.82
2019-05-10T20:12:49.550Z,9.82
2019-05-10T20:15:18.379Z,9.79
2019-05-10T20:17:47.168Z,9.76
2019-05-10T20:20:15.813Z,9.74
2019-05-10T20:22:44.416Z,9.73
2019-05-10T20:25:13.447Z,9.86
2019-05-10T20:27:42.052Z,9.79
2019-05-10T20:30:11.738Z,9.76
2019-05-10T20:32:40.329Z,9.81
2019-05-10T20:35:09.431Z,9.86
2019-05-10T20:37:38.053Z,9.91
2019-05-10T20:40:07.898Z,10.12
2019-05-10T20:42:36.437Z,10.24
2019-05-10T20:45:08.437Z,10.20
2019-05-10T20:47:36.279Z,10.19
2019-05-10T20:50:05.856Z,10.26
2019-05-10T20:52:34.524Z,10.27
2019-05-10T20:55:07.220Z,10.26
2019-05-10T20:57:35.847Z,10.29
2019-05-10T21:00:08.968Z,10.27
2019-05-10T21:02:37.587Z,10.18
2019-05-10T21:05:07.732Z,10.12
2019-05-10T21:07:36.360Z,10.12
2019-05-10T21:10:06.333Z,10.11
2019-05-10T21:12:34.919Z,10.09
2019-05-10T21:15:05.511Z,10.02
2019-05-10T21:17:34.083Z,9.93
2019-05-10T21:20:02.694Z,10.09
2019-05-10T21:22:31.356Z,10.13
2019-05-10T21:25:00.211Z,10.04
2019-05-10T21:27:28.920Z,10.03
2019-05-10T21:29:57.732Z,9.91
2019-05-10T21:32:26.455Z,9.83
2019-05-10T21:34:55.431Z,9.83
2019-05-10T21:37:24.727Z,9.98
2019-05-10T21:39:54.411Z,9.92
2019-05-10T21:42:24.599Z,9.91
2019-05-10T21:44:53.752Z,9.86
2019-05-10T21:47:22.471Z,9.79
2019-05-10T21:49:51.214Z,9.89
2019-05-10T21:52:20.069Z,9.87
2019-05-10T21:54:49.210Z,9.78
2019-05-10T21:57:17.952Z,9.71
2019-05-10T21:59:46.926Z,9.80
2019-05-10T22:02:15.850Z,9.76
2019-05-10T22:04:47.999Z,9.73
2019-05-10T22:07:15.496Z,9.65
2019-05-10T22:09:44.066Z,9.70
2019-05-10T22:12:12.833Z,9.54
2019-05-10T22:14:41.654Z,9.58
2019-05-10T22:17:10.492Z,9.40
2019-05-10T22:19:39.189Z,9.37
2019-05-10T22:22:07.808Z,9.21
2019-05-10T22:24:36.431Z,9.15
2019-05-10T22:27:05.370Z,9.01
2019-05-10T22:29:34.032Z,9.01
2019-05-10T22:32:02.676Z,9.06
2019-05-10T22:34:33.090Z,9.03
2019-05-10T22:37:04.566Z,8.86
2019-05-10T22:39:36.072Z,8.81
2019-05-10T22:42:04.856Z,8.76
2019-05-10T22:44:33.487Z,8.59
2019-05-10T22:47:02.142Z,8.70
2019-05-10T22:49:33.562Z,8.71
2019-05-10T22:52:02.405Z,8.59
2019-05-10T22:54:31.333Z,8.56
2019-05-10T22:56:59.920Z,8.52
2019-05-10T22:59:28.559Z,8.34
2019-05-10T23:01:57.265Z,8.27
2019-05-10T23:04:25.989Z,8.30
2019-05-10T23:06:54.712Z,8.28
2019-05-10T23:09:25.161Z,8.13
2019-05-10T23:11:54.121Z,8.06
2019-05-10T23:14:22.771Z,7.97
2019-05-10T23:16:51.867Z,7.87
2019-05-10T23:19:20.797Z,7.86
2019-05-10T23:21:49.514Z,7.81
2019-05-10T23:24:18.218Z,7.87
2019-05-10T23:26:46.940Z,8.00
2019-05-10T23:29:15.599Z,8.02
2019-05-10T23:31:44.382Z,8.10
2019-05-10T23:34:13.097Z,8.02
2019-05-10T23:36:41.822Z,8.05
2019-05-10T23:39:11.281Z,7.84
2019-05-10T23:41:39.989Z,7.75
2019-05-10T23:44:09.009Z,7.77
2019-05-10T23:46:37.889Z,7.81
2019-05-10T23:49:06.441Z,7.77
2019-05-10T23:51:35.279Z,7.90
2019-05-10T23:54:03.994Z,7.95
2019-05-10T23:56:32.659Z,7.99
2019-05-10T23:59:01.308Z,8.08
